AirNav   Air Wisconsin Up To $57,000 Bonus
 
 291 users online  

TA31 Tularosa Airport
Brackettville, Texas, USA

GOING TO BRACKETTVILLE?


FAA INFORMATION EFFECTIVE 12 SEPTEMBER 2019

Location

FAA Identifier: TA31
Lat/Long: 29-25-49.8360N 100-15-27.2670W
29-25.830600N 100-15.454450W
29.4305100,-100.2575742
(estimated)
Elevation: 1397 ft. / 426 m (estimated)
Variation: 08E (1985)
From city: 10 miles E of BRACKETTVILLE, TX
Time zone: UTC -5 (UTC -6 during Standard Time)
Zip code: 78832

Airport Operations

Airport use: Private use. Permission required prior to landing
Activation date: 06/1989
Control tower: no
ARTCC: HOUSTON CENTER
FSS: SAN ANGELO FLIGHT SERVICE STATION
Attendance: IREG
Wind indicator: yes
Segmented circle: no

Nearby radio navigation aids

VOR radial/distance  VOR name  Freq  Var
DLFr074/27.2LAUGHLIN VORTAC114.4007E
RSGr166/35.1ROCKSPRINGS VORTAC111.2010E

 
NDB name  Hdg/Dist  Freq  Var  ID
SPOFFORD019/19.335608EPFO .--. ..-. ---
LA FONDA RANCH046/23.326909EBRX -... .-. -..-
UVALDE292/31.728107EUVA ..- ...- .-
CHAPARROSA RANCH332/35.938505ECPZ -.-. .--. --..
LA PRYOR316/36.722309ELKX .-.. -.- -..-

Airport Services

Runway Information

Runway 1/19

Dimensions: 3800 x 60 ft. / 1158 x 18 m
Surface: turf
RUNWAY 1  RUNWAY 19
Traffic pattern: leftleft
Obstructions: 5 ft. fence, 5 ft. from runway5 ft. fence, 20 ft. from runway

Airport Ownership and Management from official FAA records

Ownership: Privately-owned
Owner: LLOYD L. DAVIS, JR.
BOX 527
BRACKETTVILLE, TX 78832
Phone 830-563-2742
OR 830-563-9508.
Manager: LLOYD L. DAVIS, JR.
BOX 527
BRACKETTVILLE, TX 78832
Phone 830-563-9508

Airport Operational Statistics

Aircraft based on the field: 7
Single engine airplanes: 2
Multi engine airplanes: 2
Helicopters: 3
    

Additional Remarks

FOR CD CTC HOUSTON ARTCC AT 281-230-5622.

Instrument Procedures

There are no published instrument procedures at TA31.

Some nearby airports with instrument procedures:

KDLF - Laughlin AFB Airport (28 nm W)
KUVA - Garner Field Airport (30 nm SE)
KECU - Edwards County Airport (31 nm N)
KDRT - Del Rio International Airport (35 nm W)
5T9 - Maverick County Memorial International Airport (37 nm S)
 
Loc | Ops | Rwys | IFR | FBO | Links
Com | Nav | Svcs | Stats | Notes
Area around TA31 (Tularosa Airport)
 
Road maps at: MapQuest Bing Google
 
Aerial photo
No photo
 
Sectional chart

 
Airport distance calculator
Flying to Tularosa Airport? Find the distance to fly.

From to TA31

Sunrise and sunset
Times for 18-Sep-2019
 Local
(UTC-5)
 Zulu
(UTC)
Morning civil twilight07:0512:05
Sunrise07:2812:28
Sunset19:4200:42
Evening civil twilight20:0601:06

Current date and time
Zulu (UTC)  18-Sep-2019 08:44:04
Local (UTC-5)  18-Sep-2019 03:44:04
 
METAR
KT70 
22nm SW 
180658Z AUTO 10009KT 10SM CLR 27/20 A2984 RMK AO2 SLP090 T02690203 $
KDLF 
27nm W 
180656Z AUTO 12009KT 10SM CLR 27/20 A2989 RMK AO2 SLP107 T02710202 RVRNO $
KUVA 
30nm SE 
180835Z AUTO 06004KT 10SM CLR 23/21 A2991 RMK AO2 T02300210
KECU 
31nm N 
180835Z AUTO 11005KT 10SM FEW050 22/18 A3001 RMK AO2
KDRT 
35nm W 
180753Z AUTO 12007KT 10SM CLR 27/20 A2989 RMK AO2 SLP101 T02720200
K5T9 
37nm S 
180835Z AUTO 09008KT 10SM CLR 26/20 A2988 RMK A01
TAF
KDLF 
27nm W 
180320Z 1803/1908 VRB06KT 9999 FEW065 QNH2979INS BECMG 1815/1816 13009KT 9999 SCT060 QNH2982INS TX36/1822Z TN23/1812Z LAST NO AMDS AFT 1803 NEXT 1810
NOTAMs
Click for the latest NOTAMs
NOTAMs are issued by the DoD/FAA and will open in a separate window not controlled by AirNav.

 

 
 

Would you like to see your business listed on this page?

 If your business provides an interesting product or service to pilots, flight crews, aircraft, or users of the Tularosa Airport, you should consider listing it here.  To start the listing process, click on the button below
 
Add a business
 

Other Pages about Tularosa Airport

Update a link
 
Copyright © AirNav, LLC. All rights reserved. Privacy Policy  Contact